Latest Weather Observations for Kuitpo

IDS60901

Issued at 12:11 pm CDT Wednesday 29 January 2020 (issued every 10 minutes, with the page automatically refreshed every 10 minutes)

About weather observations | Map of Adelaide area stations | Latest observations for Adelaide area | Other Formats
Station Details ID: 023887 Name: KUITPO FOREST RESERVE Lat: -35.17 Lon: 138.68 Height: 365.0 m
Data from the previous 72 hours. | See also: Recent months at Kuitpo
Date/Time
CDT
Temp
°C
App
Temp
°C
Dew
Point
°C
Rel
Hum
%
Delta-T
°C
Wind Press
QNH
hPa
Press
MSL
hPa
Rain since
9am
mm
Dir  Spd
km/h
Gust
km/h
Spd
kts
Gust
kts
29/12:00pm 32.5 28.6 3.5 16 15.2 NNE 13 28 7 15 1015.7 1014.4 0.0
29/11:30am 31.5 27.7 5.8 20 13.9 NE 15 26 8 14 1015.9 1014.6 0.0
29/11:00am 30.1 26.1 6.7 23 12.7 NE 17 26 9 14 1016.4 1015.0 0.0
29/10:30am 28.8 26.1 7.4 26 11.7 NE 11 17 6 9 1016.6 1015.2 0.0
29/10:00am 26.8 23.9 8.3 31 10.2 ENE 13 20 7 11 1016.7 1015.3 0.0
29/09:30am 24.6 21.7 8.1 35 8.9 NE 13 20 7 11 1016.7 1015.3 0.0
29/09:00am 22.8 19.1 7.8 38 8.0 NE 17 28 9 15 1016.7 1015.3 0.2
29/08:30am 20.7 16.5 7.3 42 7.0 ENE 19 24 10 13 1016.6 1015.2 0.2
29/08:00am 19.9 15.4 6.3 41 6.9 NE 19 24 10 13 1016.5 1015.1 0.2
29/07:30am 19.4 14.8 5.5 40 6.9 ENE 19 26 10 14 1016.2 1014.8 0.2
29/07:00am 18.2 13.6 5.4 43 6.3 ENE 19 24 10 13 1015.8 1014.5 0.2
29/06:30am 17.7 12.8 5.0 43 6.2 ENE 20 28 11 15 1015.6 1014.3 0.2
29/06:00am 17.8 13.0 5.7 45 6.0 ENE 20 28 11 15 1015.5 1014.2 0.2
29/05:30am 17.6 13.0 5.5 45 6.0 ENE 19 26 10 14 1015.6 1014.3 0.2
29/05:00am 18.0 13.1 4.9 42 6.4 ENE 20 26 11 14 1015.7 1014.4 0.2
29/04:30am 17.8 12.8 4.4 41 6.5 ENE 20 26 11 14 1015.5 1014.2 0.2
29/04:00am 17.8 12.7 4.0 40 6.6 ENE 20 28 11 15 1015.5 1014.2 0.2
29/03:30am 17.7 12.2 2.1 35 7.2 ENE 20 26 11 14 1015.7 1014.4 0.2
29/03:00am 16.7 10.7 1.2 35 7.0 NE 22 28 12 15 1015.8 1014.5 0.2
29/02:30am 17.1 11.7 1.5 35 7.1 ENE 19 24 10 13 1015.8 1014.5 0.2
29/02:00am 17.7 12.0 0.8 32 7.6 ENE 20 24 11 13 1015.9 1014.6 0.2
29/01:30am 17.5 11.8 -0.7 29 7.9 ENE 19 24 10 13 1016.2 1014.8 0.2
29/01:00am 16.8 11.3 1.7 36 6.9 E 20 26 11 14 1016.3 1014.9 0.2
29/12:30am 16.2 11.7 6.9 54 4.7 ESE 20 26 11 14 1016.4 1015.0 0.2
29/12:00am 16.3 11.7 8.0 58 4.3 E 22 28 12 15 1016.5 1015.1 0.2
 
Date/Time
CDT
Temp
°C
App
Temp
°C
Dew
Point
°C
Rel
Hum
%
Delta-T
°C
Wind Press
QNH
hPa
Press
MSL
hPa
Rain since
9am
mm
Dir  Spd
km/h
Gust
km/h
Spd
kts
Gust
kts
28/11:30pm 15.8 12.1 10.1 69 3.0 ESE 20 28 11 15 1016.5 1015.1 0.2
28/11:00pm 15.6 12.8 12.5 82 1.7 ESE 19 24 10 13 1016.7 1015.3 0.2
28/10:30pm 15.8 13.3 13.5 86 1.3 ESE 19 24 10 13 1016.9 1015.5 0.2
28/10:00pm 16.4 13.8 13.1 81 1.9 E 19 24 10 13 1016.7 1015.3 0.2
28/09:30pm 16.8 14.0 12.7 77 2.3 ESE 19 22 10 12 1016.6 1015.2 0.2
28/09:00pm 18.1 14.9 11.2 64 3.8 ESE 19 22 10 12 1016.3 1014.9 0.2
28/08:30pm 19.6 16.7 10.9 57 4.8 ESE 17 20 9 11 1016.0 1014.7 0.2
28/08:00pm 21.2 19.1 12.3 57 5.1 ESE 15 20 8 11 1015.7 1014.4 0.2
28/07:30pm 23.2 21.6 12.8 52 6.1 ESE 13 20 7 11 1015.6 1014.3 0.2
28/07:00pm 23.9 21.7 12.2 48 6.8 SE 15 20 8 11 1015.4 1014.1 0.2
28/06:30pm 25.9 24.3 12.7 44 7.8 SE 13 20 7 11 1015.2 1013.8 0.2
28/06:00pm 26.8 24.9 11.7 39 8.8 ESE 13 19 7 10 1015.1 1013.7 0.2
28/05:30pm 27.3 25.6 11.3 37 9.3 SE 11 20 6 11 1015.3 1013.9 0.2
28/05:00pm 28.5 26.8 11.1 34 10.1 SE 11 24 6 13 1015.2 1013.8 0.2
28/04:30pm 28.7 26.8 10.4 32 10.5 ESE 11 20 6 11 1015.2 1013.8 0.2
28/04:00pm 28.4 27.4 12.3 37 9.5 WSW 9 17 5 9 1015.4 1014.1 0.2
28/03:30pm 27.3 26.5 12.9 41 8.6 WSW 9 17 5 9 1015.5 1014.2 0.2
28/03:00pm 27.9 25.3 11.9 37 9.4 W 17 24 9 13 1015.5 1014.2 0.2
28/02:30pm 28.7 26.5 10.8 33 10.3 WSW 13 20 7 11 1015.7 1014.4 0.2
28/02:00pm 28.5 27.8 10.2 32 10.5 W 4 9 2 5 1016.0 1014.7 0.2
28/01:30pm 27.5 25.8 9.8 33 10.0 WSW 9 15 5 8 1016.4 1015.0 0.2
28/01:00pm 27.6 27.5 10.8 35 9.7 NNE 2 9 1 5 1016.4 1015.0 0.2
28/12:30pm 25.4 24.3 10.1 38 8.6 SE 6 11 3 6 1016.6 1015.2 0.2
28/12:00pm 23.8 22.1 8.2 37 8.4 W 7 11 4 6 1016.9 1015.5 0.2
28/11:30am 22.6 21.1 6.8 36 8.2 S 4 9 2 5 1017.1 1015.7 0.2
28/11:00am 22.6 21.5 10.1 45 6.9 SE 6 15 3 8 1017.2 1015.8 0.2
28/10:30am 21.6 21.1 9.2 45 6.7 NNW 2 6 1 3 1017.2 1015.8 0.2
28/10:00am 20.2 19.6 8.8 48 6.1 S 2 9 1 5 1017.0 1015.6 0.2
28/09:30am 19.8 18.7 10.0 53 5.3 SE 6 9 3 5 1017.1 1015.7 0.0
28/09:00am 17.2 16.2 12.3 73 2.7 ESE 9 11 5 6 1016.8 1015.4 0.0
28/08:30am 16.2 15.5 12.0 76 2.3 ESE 7 11 4 6 1016.5 1015.1 0.0
28/08:00am 14.6 13.0 11.7 83 1.6 NE 11 15 6 8 1015.8 1014.5 0.0
28/07:30am 13.6 12.4 11.7 88 1.0 ENE 9 13 5 7 1015.8 1014.5 0.0
28/07:00am 12.5 11.0 12.0 97 0.3 NE 11 15 6 8 1015.3 1013.9 0.0
28/06:30am 12.0 10.4 11.4 96 0.3 E 11 13 6 7 1015.3 1013.9 0.0
28/06:00am 12.5 11.0 11.9 96 0.3 NNE 11 17 6 9 1015.0 1013.6 0.0
28/05:30am 12.2 10.6 11.6 96 0.3 NE 11 17 6 9 1014.7 1013.3 0.0
28/05:00am 12.5 10.6 11.7 95 0.4 ENE 13 19 7 10 1014.9 1013.5 0.0
28/04:30am 12.4 10.1 11.6 95 0.4 E 15 19 8 10 1015.1 1013.7 0.0
28/04:00am 12.6 10.3 11.8 95 0.4 E 15 20 8 11 1015.2 1013.8 0.0
28/03:30am 12.7 10.0 11.8 94 0.5 E 17 22 9 12 1015.2 1013.8 0.0
28/03:00am 12.7 10.0 11.6 93 0.6 E 17 20 9 11 1015.5 1014.2 0.0
28/02:30am 12.7 10.0 11.8 94 0.5 E 17 22 9 12 1015.5 1014.2 0.0
28/02:00am 12.7 10.7 11.6 93 0.6 E 13 15 7 8 1015.7 1014.4 0.0
28/01:30am 12.9 10.6 11.8 93 0.6 E 15 20 8 11 1015.8 1014.5 0.0
28/01:00am 13.0 11.1 11.9 93 0.6 E 13 17 7 9 1016.0 1014.7 0.0
28/12:30am 12.9 10.6 11.6 92 0.7 ESE 15 22 8 12 1016.3 1014.9 0.0
28/12:00am 13.0 10.7 11.6 91 0.8 ESE 15 22 8 12 1016.5 1015.1 0.0
 
Date/Time
CDT
Temp
°C
App
Temp
°C
Dew
Point
°C
Rel
Hum
%
Delta-T
°C
Wind Press
QNH
hPa
Press
MSL
hPa
Rain since
9am
mm
Dir  Spd
km/h
Gust
km/h
Spd
kts
Gust
kts
27/11:30pm 13.3 10.6 11.7 90 0.9 ESE 17 24 9 13 1016.5 1015.1 0.0
27/11:00pm 13.4 11.1 11.6 89 1.0 E 15 20 8 11 1016.4 1015.0 0.0
27/10:30pm 13.5 11.2 11.6 88 1.0 ESE 15 22 8 12 1016.6 1015.2 0.0
27/10:00pm 13.7 11.4 11.6 87 1.1 ESE 15 20 8 11 1016.3 1014.9 0.0
27/09:30pm 14.0 11.2 11.5 85 1.4 SE 17 24 9 13 1016.3 1014.9 0.0
27/09:00pm 14.5 11.7 11.5 82 1.6 SE 17 26 9 14 1015.9 1014.6 0.0
27/08:30pm 15.1 12.3 11.5 79 2.0 SE 17 28 9 15 1015.5 1014.2 0.0
27/08:00pm 15.9 13.1 11.5 75 2.4 SE 17 28 9 15 1015.5 1014.2 0.0
27/07:30pm 17.0 14.3 11.7 71 2.9 SSE 17 28 9 15 1015.1 1013.7 0.0
27/07:00pm 17.9 14.9 11.9 68 3.4 SSE 19 32 10 17 1014.8 1013.4 0.0
27/06:30pm 18.9 15.9 11.9 64 3.9 SE 19 33 10 18 1014.6 1013.2 0.0
27/06:00pm 20.1 17.2 12.3 61 4.4 SE 19 30 10 16 1014.5 1013.1 0.0
27/05:30pm 20.7 18.2 12.4 59 4.7 SE 17 30 9 16 1014.5 1013.1 0.0
27/05:00pm 21.5 18.8 12.9 58 5.0 SE 19 30 10 16 1014.4 1013.0 0.0
27/04:30pm 22.9 21.6 13.7 56 5.4 SE 13 22 7 12 1014.5 1013.1 0.0
27/04:00pm 24.3 22.8 13.2 50 6.5 SSE 13 24 7 13 1014.7 1013.3 0.0
27/03:30pm 25.8 25.3 14.9 51 6.6 S 11 24 6 13 1014.6 1013.2 0.0
27/03:00pm 25.4 24.2 15.1 53 6.3 WSW 15 20 8 11 1014.5 1013.1 0.0
27/02:30pm 24.2 24.2 14.3 54 5.9 SW 7 19 4 10 1014.8 1013.4 0.0
27/02:00pm 23.7 23.2 13.8 53 5.9 S 9 19 5 10 1015.2 1013.8 0.0
27/01:30pm 23.4 22.3 14.4 57 5.4 WSW 13 20 7 11 1015.4 1014.1 0.0
27/01:00pm 24.0 22.7 14.7 56 5.6 WSW 15 26 8 14 1015.7 1014.4 0.0
27/12:30pm 23.4 22.5 13.8 54 5.7 W 11 17 6 9 1015.7 1014.4 0.0
27/12:00pm 22.6 22.7 14.4 60 4.9 W 7 13 4 7 1015.8 1014.5 0.0
27/11:30am 21.8 21.4 14.2 62 4.5 E 9 13 5 7 1016.2 1014.8 0.0
27/11:00am 20.6 20.0 13.6 64 4.1 SW 9 17 5 9 1016.4 1015.0 0.0
27/10:30am 20.2 18.9 13.6 66 3.8 SW 13 20 7 11 1016.5 1015.1 0.0
27/10:00am 19.5 19.5 14.1 71 3.2 WNW 7 13 4 7 1016.0 1014.7 0.0
27/09:30am 18.4 18.4 13.5 73 2.8 SSW 6 7 3 4 1016.0 1014.7 0.0
27/09:00am 17.6 17.2 14.1 80 2.0 ENE 9 11 5 6 1015.6 1014.3 0.0
27/08:30am 15.9 15.2 13.2 84 1.5 NE 9 17 5 9 1015.4 1014.1 0.0
27/08:00am 14.7 13.1 12.7 88 1.1 ENE 13 20 7 11 1015.1 1013.7 0.0
27/07:30am 14.0 13.1 12.7 92 0.7 ESE 9 13 5 7 1016.0 1014.7 0.0
27/07:00am 13.3 11.6 12.5 95 0.4 E 13 17 7 9 1015.2 1013.8 0.0
27/06:30am 13.1 11.4 12.5 96 0.3 E 13 15 7 8 1015.1 1013.7 0.0
27/06:00am 13.1 11.4 12.5 96 0.3 E 13 15 7 8 1015.0 1013.6 0.0
27/05:30am 13.4 11.7 12.6 95 0.4 E 13 17 7 9 1014.8 1013.4 0.0
27/05:00am 13.7 12.0 12.6 93 0.6 ENE 13 20 7 11 1014.1 1012.7 0.0
27/04:30am 14.1 12.1 12.7 91 0.8 ENE 15 20 8 11 1014.6 1013.2 0.0
27/04:00am 14.5 12.9 12.9 90 0.9 ESE 13 19 7 10 1015.1 1013.7 0.0
27/03:30am 14.6 13.1 13.0 90 0.9 ESE 13 19 7 10 1015.2 1013.8 0.0
27/03:00am 14.5 12.6 12.9 90 0.9 E 15 22 8 12 1015.3 1013.9 0.0
27/02:30am 14.7 12.9 13.2 91 0.8 E 15 19 8 10 1015.4 1014.1 0.0
27/02:00am 14.5 12.3 13.2 92 0.7 E 17 22 9 12 1015.5 1014.2 0.0
27/01:30am 14.4 12.5 13.1 92 0.7 E 15 20 8 11 1015.3 1013.9 0.0
27/01:00am 14.8 13.0 13.2 90 0.9 ESE 15 22 8 12 1015.5 1014.2 0.0
27/12:30am 15.1 13.2 13.1 88 1.1 ESE 15 20 8 11 1015.7 1014.4 0.0
27/12:00am 15.3 14.0 13.7 90 0.9 SE 13 24 7 13 1015.8 1014.5 0.0
 
Date/Time
CDT
Temp
°C
App
Temp
°C
Dew
Point
°C
Rel
Hum
%
Delta-T
°C
Wind Press
QNH
hPa
Press
MSL
hPa
Rain since
9am
mm
Dir  Spd
km/h
Gust
km/h
Spd
kts
Gust
kts
26/11:30pm 15.2 12.7 13.6 90 0.9 ESE 19 26 10 14 1015.8 1014.5 0.0
26/11:00pm 15.0 13.2 13.4 90 0.9 ESE 15 24 8 13 1016.0 1014.7 0.0
26/10:30pm 14.8 13.0 13.3 91 0.8 SE 15 26 8 14 1015.9 1014.6 0.0
26/10:00pm 14.8 13.0 13.3 91 0.8 SE 15 22 8 12 1016.2 1014.8 0.0
26/09:30pm 15.0 13.1 12.9 87 1.2 SE 15 22 8 12 1015.9 1014.6 0.0
26/09:00pm 15.6 13.3 12.9 84 1.5 SE 17 24 9 13 1015.8 1014.5 0.0
26/08:30pm 16.3 14.4 13.0 81 1.9 SSE 15 24 8 13 1015.7 1014.4 0.0
26/08:00pm 17.8 16.1 13.7 77 2.4 SE 15 22 8 12 1015.3 1013.9 0.0
26/07:30pm 19.5 18.9 14.5 73 3.0 SSE 11 19 6 10 1015.0 1013.6 0.0
26/07:00pm 20.5 20.0 14.8 70 3.4 S 11 20 6 11 1014.7 1013.3 0.0
26/06:30pm 21.1 20.6 15.0 68 3.7 SSE 11 17 6 9 1014.5 1013.1 0.0
26/06:00pm 21.4 20.7 15.5 69 3.6 SSE 13 24 7 13 1014.4 1013.0 0.0
26/05:30pm 22.1 21.0 15.2 65 4.2 SSE 15 20 8 11 1014.4 1013.0 0.0
26/05:00pm 21.9 21.1 15.0 65 4.2 SSE 13 20 7 11 1014.5 1013.1 0.0
26/04:30pm 23.2 22.6 14.5 58 5.2 SSE 11 20 6 11 1014.5 1013.1 0.0
26/04:00pm 24.7 24.0 15.3 56 5.7 WSW 13 19 7 10 1014.4 1013.0 0.0
26/03:30pm 24.2 23.1 15.4 58 5.4 WSW 15 24 8 13 1014.5 1013.1 0.0
26/03:00pm 24.0 23.2 15.0 57 5.5 WSW 13 19 7 10 1014.9 1013.5 0.0
26/02:30pm 22.7 21.2 14.3 59 5.0 WSW 15 22 8 12 1015.2 1013.8 0.0
26/02:00pm 22.2 21.2 13.3 57 5.2 WSW 11 20 6 11 1015.4 1014.1 0.0
26/01:30pm 22.5 21.6 14.9 62 4.6 SW 13 20 7 11 1015.7 1014.4 0.0
26/01:00pm 21.1 20.1 14.7 67 3.8 SW 13 22 7 12 1015.8 1014.5 0.0
26/12:30pm 20.8 18.8 14.9 69 3.5 SW 19 32 10 17 1016.4 1015.0 0.0

Latest Capital City Observations: Canberra | Sydney | Melbourne | Brisbane | Adelaide | Perth | Hobart | Darwin

Other formats

Comma delimited format used in spreadsheet applications
http://www.bom.gov.au/fwo/IDS60901/IDS60901.94683.axf

JavaScript Object Notation format (JSON) in row-major order
http://www.bom.gov.au/fwo/IDS60901/IDS60901.94683.json

Data quality

Most of these data are generated automatically and are frequently updated. Quality checks on data are not normally performed. It is possible for incorrect values to appear. Refer to information at About Latest Weather Observations and please check the disclaimer before using these data.